Time;durP1;ratioP1;P1;durP2;ratioP2;P2;SDS_P1;SDS_P2;PMS_P1;PMS_P2;Temp;Humidity;BMP_temperature;BMP_pressure;BME280_temperature;BME280_humidity;BME280_pressure;Samples;Min_cycle;Max_cycle;Signal;HPM_P1;HPM_P2
2023/01/10 00:01:31;;;;;;;3.97;2.00;;;;;;;;;;5039249;28;20212;-75
2023/01/10 00:03:57;;;;;;;3.33;2.27;;;;;;;;;;5035791;28;20236;-75
2023/01/10 00:06:23;;;;;;;5.80;3.03;;;;;;;;;;5034719;28;20182;-75
2023/01/10 00:08:49;;;;;;;4.73;2.80;;;;;;;;;;5040344;28;20197;-75
2023/01/10 00:14:00;;;;;;;4.80;2.33;;;;;;;;;;5040966;28;20651;-76
2023/01/10 00:16:27;;;;;;;9.93;4.23;;;;;;;;;;5041397;28;20185;-75
2023/01/10 00:18:53;;;;;;;4.50;2.70;;;;;;;;;;5039473;28;20174;-75
2023/01/10 00:21:19;;;;;;;3.90;2.30;;;;;;;;;;5042791;28;20202;-74
2023/01/10 00:23:47;;;;;;;7.03;3.30;;;;;;;;;;5042834;28;20186;-75
2023/01/10 00:26:13;;;;;;;15.53;7.93;;;;;;;;;;5043763;28;20186;-75
2023/01/10 00:28:40;;;;;;;12.00;6.20;;;;;;;;;;5040738;28;20546;-75
2023/01/10 00:31:10;;;;;;;8.37;4.20;;;;;;;;;;5038152;28;20276;-75
2023/01/10 00:33:37;;;;;;;6.07;3.40;;;;;;;;;;5040581;28;20217;-75
2023/01/10 00:36:04;;;;;;;3.83;2.30;;;;;;;;;;5040042;28;20776;-75
2023/01/10 00:38:32;;;;;;;3.57;1.90;;;;;;;;;;5037921;28;20658;-75
2023/01/10 00:40:58;;;;;;;2.07;1.60;;;;;;;;;;5039519;28;20284;-74
2023/01/10 00:46:10;;;;;;;1.90;1.57;;;;;;;;;;5019584;28;20191;-75
2023/01/10 00:48:36;;;;;;;3.37;1.40;;;;;;;;;;5020855;28;20193;-76
2023/01/10 00:51:03;;;;;;;2.17;1.60;;;;;;;;;;5023260;28;20308;-75
2023/01/10 00:53:29;;;;;;;2.20;1.40;;;;;;;;;;5020396;28;20220;-75
2023/01/10 00:55:56;;;;;;;2.70;1.47;;;;;;;;;;5018521;28;20190;-75
2023/01/10 00:58:23;;;;;;;2.07;1.60;;;;;;;;;;5024882;28;20194;-75
2023/01/10 01:00:49;;;;;;;3.50;1.50;;;;;;;;;;5020307;28;20240;-75
2023/01/10 01:03:16;;;;;;;2.63;1.40;;;;;;;;;;5040353;28;20197;-75
2023/01/10 01:05:43;;;;;;;2.37;1.40;;;;;;;;;;5027055;28;20174;-74
2023/01/10 01:08:10;;;;;;;1.27;1.17;;;;;;;;;;5022739;28;20194;-74
2023/01/10 01:10:36;;;;;;;2.10;1.13;;;;;;;;;;5022263;28;20209;-75
2023/01/10 01:13:10;;;;;;;2.77;1.30;;;;;;;;;;5023005;28;20210;-75
2023/01/10 01:15:36;;;;;;;2.10;1.20;;;;;;;;;;5022349;28;20197;-75
2023/01/10 01:18:03;;;;;;;1.07;0.97;;;;;;;;;;5022071;28;20713;-74
2023/01/10 01:20:29;;;;;;;3.03;1.47;;;;;;;;;;5026133;28;20182;-74
2023/01/10 01:22:55;;;;;;;2.23;0.90;;;;;;;;;;5023599;28;20194;-75
2023/01/10 01:25:21;;;;;;;1.80;0.90;;;;;;;;;;5023942;28;20698;-75
2023/01/10 01:27:47;;;;;;;1.03;0.70;;;;;;;;;;5019745;28;20514;-75
2023/01/10 01:30:13;;;;;;;2.10;0.70;;;;;;;;;;5022791;28;20206;-74
2023/01/10 01:32:40;;;;;;;0.97;0.80;;;;;;;;;;5025028;28;20336;-75
2023/01/10 01:35:07;;;;;;;1.10;0.60;;;;;;;;;;5026516;28;20721;-74
2023/01/10 01:37:33;;;;;;;1.03;0.70;;;;;;;;;;5018353;28;20210;-75
2023/01/10 01:39:59;;;;;;;1.40;0.90;;;;;;;;;;5021063;28;20198;-75
2023/01/10 01:42:25;;;;;;;1.47;0.70;;;;;;;;;;5025175;28;20738;-74
2023/01/10 01:45:07;;;;;;;2.17;0.80;;;;;;;;;;5025743;28;20238;-74
2023/01/10 01:47:44;;;;;;;1.53;0.80;;;;;;;;;;5022381;28;20328;-74
2023/01/10 01:50:22;;;;;;;0.60;0.60;;;;;;;;;;5025591;28;20684;-75
2023/01/10 01:52:50;;;;;;;2.00;0.80;;;;;;;;;;5026481;28;20202;-75
2023/01/10 01:55:17;;;;;;;0.60;0.60;;;;;;;;;;5024216;28;20202;-74
2023/01/10 01:57:44;;;;;;;0.93;0.70;;;;;;;;;;5028473;28;20268;-74
2023/01/10 02:00:10;;;;;;;0.77;0.70;;;;;;;;;;5032891;28;20174;-75
2023/01/10 02:02:43;;;;;;;1.67;0.70;;;;;;;;;;5025539;28;20203;-75
2023/01/10 02:05:09;;;;;;;1.60;0.80;;;;;;;;;;5024866;28;20580;-74
2023/01/10 02:07:36;;;;;;;1.70;1.30;;;;;;;;;;5026447;28;20337;-75
2023/01/10 02:10:06;;;;;;;1.53;0.90;;;;;;;;;;5026762;28;20227;-74
2023/01/10 02:12:32;;;;;;;2.13;0.97;;;;;;;;;;5025667;28;20202;-75
2023/01/10 02:14:58;;;;;;;3.67;0.97;;;;;;;;;;5025260;28;20649;-74
2023/01/10 02:17:25;;;;;;;1.50;0.90;;;;;;;;;;5020040;28;20179;-74
2023/01/10 02:19:53;;;;;;;2.03;0.87;;;;;;;;;;5019955;28;20195;-75
2023/01/10 02:22:42;;;;;;;1.50;0.87;;;;;;;;;;5018409;28;20175;-74
2023/01/10 02:25:27;;;;;;;1.20;0.80;;;;;;;;;;5022644;28;20251;-75
2023/01/10 02:28:10;;;;;;;2.90;1.10;;;;;;;;;;5023963;28;20189;-75
2023/01/10 02:30:36;;;;;;;1.07;0.90;;;;;;;;;;5017681;28;20233;-75
2023/01/10 02:33:02;;;;;;;2.97;1.00;;;;;;;;;;5022753;28;20304;-75
2023/01/10 02:35:38;;;;;;;1.07;0.90;;;;;;;;;;5026026;28;20238;-74
2023/01/10 02:38:22;;;;;;;2.87;0.90;;;;;;;;;;5022100;28;21595;-75
2023/01/10 02:41:01;;;;;;;1.20;0.80;;;;;;;;;;5023952;28;20274;-74
2023/01/10 02:43:31;;;;;;;0.93;0.83;;;;;;;;;;5021023;28;20357;-74
2023/01/10 02:46:29;;;;;;;1.60;1.00;;;;;;;;;;5022881;28;20797;-75
2023/01/10 02:48:56;;;;;;;12.47;5.53;;;;;;;;;;5000967;28;20201;-74
2023/01/10 02:51:26;;;;;;;12.73;5.77;;;;;;;;;;5025870;28;20279;-75
2023/01/10 02:54:00;;;;;;;10.77;3.70;;;;;;;;;;5021753;28;20211;-75
2023/01/10 02:56:45;;;;;;;34.27;12.87;;;;;;;;;;5024627;28;20182;-75
2023/01/10 02:59:14;;;;;;;30.07;12.27;;;;;;;;;;5022328;28;20175;-75
2023/01/10 03:01:58;;;;;;;19.00;7.27;;;;;;;;;;5023772;28;20182;-75
2023/01/10 03:04:36;;;;;;;19.93;7.60;;;;;;;;;;5026001;28;20240;-75
2023/01/10 03:07:23;;;;;;;13.67;5.87;;;;;;;;;;5027745;28;20664;-74
2023/01/10 03:10:03;;;;;;;16.77;7.30;;;;;;;;;;5026637;28;21404;-74
2023/01/10 03:12:39;;;;;;;29.83;11.70;;;;;;;;;;5030892;28;20228;-75
2023/01/10 03:15:06;;;;;;;17.73;7.00;;;;;;;;;;5029232;28;20228;-75
2023/01/10 03:17:32;;;;;;;20.73;7.07;;;;;;;;;;5023727;28;20713;-75
2023/01/10 03:20:00;;;;;;;19.23;7.60;;;;;;;;;;5027908;28;20186;-75
2023/01/10 03:22:28;;;;;;;19.27;6.90;;;;;;;;;;5029347;28;20233;-75
2023/01/10 03:24:56;;;;;;;13.23;4.63;;;;;;;;;;5025183;28;20268;-74
2023/01/10 03:27:27;;;;;;;17.73;6.10;;;;;;;;;;5028153;28;20664;-74
2023/01/10 03:30:05;;;;;;;18.43;7.17;;;;;;;;;;5026045;28;20436;-75
2023/01/10 03:32:32;;;;;;;11.53;4.53;;;;;;;;;;5026456;28;20212;-75
2023/01/10 03:34:59;;;;;;;12.13;4.63;;;;;;;;;;5028656;28;20202;-75
2023/01/10 03:37:35;;;;;;;24.57;8.47;;;;;;;;;;5020557;28;20243;-74
2023/01/10 03:40:08;;;;;;;17.60;6.00;;;;;;;;;;5028424;28;20194;-75
2023/01/10 03:44:42;;;;;;;13.00;5.00;;;;;;;;;;5028214;28;20198;-75
2023/01/10 03:45:24;;;;;;;6.40;2.67;;;;;;;;;;5021412;28;20214;-74
2023/01/10 03:47:52;;;;;;;4.07;1.80;;;;;;;;;;5021579;28;20267;-75
2023/01/10 03:50:23;;;;;;;3.57;1.80;;;;;;;;;;5024317;28;20255;-74
2023/01/10 03:52:49;;;;;;;2.30;1.40;;;;;;;;;;5007140;28;20253;-75
2023/01/10 03:55:19;;;;;;;4.03;1.57;;;;;;;;;;5024598;28;20223;-74
2023/01/10 03:57:46;;;;;;;3.67;1.20;;;;;;;;;;5026257;28;20178;-75
2023/01/10 04:00:13;;;;;;;2.90;1.30;;;;;;;;;;5028441;28;20803;-75
2023/01/10 04:02:39;;;;;;;2.13;1.00;;;;;;;;;;5027384;28;20244;-75
2023/01/10 04:05:06;;;;;;;3.07;1.33;;;;;;;;;;5026013;28;20224;-75
2023/01/10 04:07:33;;;;;;;3.40;1.40;;;;;;;;;;5026423;28;20814;-74
2023/01/10 04:09:59;;;;;;;2.87;1.77;;;;;;;;;;5028117;28;20182;-75
2023/01/10 04:12:25;;;;;;;3.70;1.70;;;;;;;;;;5023554;28;20634;-75
2023/01/10 04:14:51;;;;;;;5.30;1.63;;;;;;;;;;5027414;28;20620;-75
2023/01/10 04:17:17;;;;;;;4.77;1.70;;;;;;;;;;5026143;28;20179;-75
2023/01/10 04:19:44;;;;;;;4.00;1.80;;;;;;;;;;5023882;28;20179;-75
2023/01/10 04:22:11;;;;;;;5.17;2.33;;;;;;;;;;5025080;28;20612;-75
2023/01/10 04:24:37;;;;;;;6.27;2.43;;;;;;;;;;5024067;28;20217;-75
2023/01/10 04:27:04;;;;;;;8.47;2.87;;;;;;;;;;5021387;28;20186;-75
2023/01/10 04:29:30;;;;;;;6.60;2.50;;;;;;;;;;5019358;28;20183;-75
2023/01/10 04:31:57;;;;;;;6.87;2.57;;;;;;;;;;5017022;28;20562;-75
2023/01/10 04:34:23;;;;;;;6.00;2.30;;;;;;;;;;5017247;28;20214;-75
2023/01/10 04:36:49;;;;;;;6.27;2.30;;;;;;;;;;5018267;28;20171;-75
2023/01/10 04:39:16;;;;;;;4.83;2.30;;;;;;;;;;5021292;28;20179;-74
2023/01/10 04:41:42;;;;;;;5.10;2.20;;;;;;;;;;5021399;28;20665;-75
2023/01/10 04:44:08;;;;;;;4.93;2.30;;;;;;;;;;5021737;28;20221;-74
2023/01/10 04:46:34;;;;;;;6.57;2.40;;;;;;;;;;5020795;28;20193;-75
2023/01/10 04:49:01;;;;;;;5.73;2.17;;;;;;;;;;5019207;28;20897;-75
2023/01/10 04:51:27;;;;;;;7.43;2.23;;;;;;;;;;5018385;28;20199;-75
2023/01/10 04:53:54;;;;;;;4.80;2.30;;;;;;;;;;5018655;28;20719;-74
2023/01/10 04:56:21;;;;;;;4.37;2.10;;;;;;;;;;5017974;28;20174;-75
2023/01/10 04:58:48;;;;;;;4.90;2.43;;;;;;;;;;5028530;28;20215;-75
2023/01/10 05:01:15;;;;;;;6.13;2.60;;;;;;;;;;5024665;28;20183;-75
2023/01/10 05:03:42;;;;;;;4.57;1.90;;;;;;;;;;5023803;28;20206;-75
2023/01/10 05:06:08;;;;;;;4.80;2.00;;;;;;;;;;5023621;28;20523;-75
2023/01/10 05:08:34;;;;;;;5.67;2.03;;;;;;;;;;5025695;28;21859;-75
2023/01/10 05:11:01;;;;;;;8.37;2.63;;;;;;;;;;5016523;28;20186;-75
2023/01/10 05:13:27;;;;;;;9.07;2.37;;;;;;;;;;5023696;28;20292;-75
2023/01/10 05:15:55;;;;;;;10.97;2.10;;;;;;;;;;5025337;28;20288;-74
2023/01/10 05:18:21;;;;;;;7.50;2.30;;;;;;;;;;5040139;28;20178;-75
2023/01/10 05:20:47;;;;;;;4.93;2.00;;;;;;;;;;5022857;28;20322;-75
2023/01/10 05:23:13;;;;;;;5.23;2.50;;;;;;;;;;5020988;28;20290;-75
2023/01/10 05:25:40;;;;;;;7.73;2.60;;;;;;;;;;5017834;28;20751;-75
2023/01/10 05:28:06;;;;;;;7.47;2.47;;;;;;;;;;5017929;28;20194;-75
2023/01/10 05:30:32;;;;;;;7.23;2.37;;;;;;;;;;5022310;28;20642;-75
2023/01/10 05:32:58;;;;;;;9.47;2.70;;;;;;;;;;5018467;28;20255;-75
2023/01/10 05:35:25;;;;;;;7.93;2.47;;;;;;;;;;5020230;28;21995;-74
2023/01/10 05:37:52;;;;;;;8.00;2.70;;;;;;;;;;5011963;28;20182;-75
2023/01/10 05:40:19;;;;;;;6.00;2.40;;;;;;;;;;5016605;28;20652;-75
2023/01/10 05:42:45;;;;;;;7.50;2.50;;;;;;;;;;5022108;28;21050;-74
2023/01/10 05:45:11;;;;;;;6.00;2.33;;;;;;;;;;5018303;28;20327;-74
2023/01/10 05:47:38;;;;;;;6.00;2.40;;;;;;;;;;5018328;28;20194;-74
2023/01/10 05:50:04;;;;;;;9.17;2.30;;;;;;;;;;5025135;28;20199;-74
2023/01/10 05:52:30;;;;;;;7.23;3.00;;;;;;;;;;5025488;28;20193;-74
2023/01/10 05:54:56;;;;;;;5.03;2.10;;;;;;;;;;5025543;28;20271;-74
2023/01/10 05:57:23;;;;;;;5.80;2.27;;;;;;;;;;5023046;28;20705;-75
2023/01/10 05:59:50;;;;;;;10.90;2.60;;;;;;;;;;5025321;28;20583;-75
2023/01/10 06:02:16;;;;;;;7.70;2.40;;;;;;;;;;5017552;28;20425;-75
2023/01/10 06:04:42;;;;;;;6.33;2.20;;;;;;;;;;5022563;28;20199;-75
2023/01/10 06:07:08;;;;;;;5.30;2.20;;;;;;;;;;5024698;28;20179;-74
2023/01/10 06:09:35;;;;;;;6.73;2.73;;;;;;;;;;5020256;28;20245;-75
2023/01/10 06:12:01;;;;;;;6.93;2.57;;;;;;;;;;5022723;28;20191;-75
2023/01/10 06:14:27;;;;;;;9.70;2.67;;;;;;;;;;5023204;28;20222;-75
2023/01/10 06:16:53;;;;;;;6.90;2.57;;;;;;;;;;5036266;28;20214;-75
2023/01/10 06:19:19;;;;;;;7.57;2.43;;;;;;;;;;5013345;28;20612;-75
2023/01/10 06:21:46;;;;;;;8.97;2.80;;;;;;;;;;5017563;28;20561;-75
2023/01/10 06:24:12;;;;;;;9.70;2.50;;;;;;;;;;5018044;28;20206;-74
2023/01/10 06:26:38;;;;;;;9.83;2.80;;;;;;;;;;5023724;28;20583;-74
2023/01/10 06:29:04;;;;;;;6.67;2.43;;;;;;;;;;5022396;28;20186;-74
2023/01/10 06:31:31;;;;;;;8.17;3.03;;;;;;;;;;5023536;28;20842;-75
2023/01/10 06:33:57;;;;;;;10.80;2.60;;;;;;;;;;5018325;28;20257;-75
2023/01/10 06:36:23;;;;;;;8.03;2.40;;;;;;;;;;5019515;28;20179;-74
2023/01/10 06:38:49;;;;;;;6.43;2.30;;;;;;;;;;5021805;28;20269;-74
2023/01/10 06:41:16;;;;;;;10.13;2.63;;;;;;;;;;5026183;28;20201;-74
2023/01/10 06:43:44;;;;;;;5.37;2.30;;;;;;;;;;5020382;28;20774;-75
2023/01/10 06:46:10;;;;;;;9.57;2.40;;;;;;;;;;5039758;23;20229;-73
2023/01/10 06:48:37;;;;;;;6.77;2.30;;;;;;;;;;5024100;28;20219;-73
2023/01/10 06:51:04;;;;;;;12.60;3.30;;;;;;;;;;5028209;28;20433;-75
2023/01/10 06:53:30;;;;;;;10.40;2.70;;;;;;;;;;5029104;28;20190;-74
2023/01/10 06:55:56;;;;;;;10.10;2.80;;;;;;;;;;5021846;28;20211;-74
2023/01/10 06:58:22;;;;;;;11.27;2.50;;;;;;;;;;5021753;28;20278;-76
2023/01/10 07:00:49;;;;;;;7.27;2.50;;;;;;;;;;5022589;28;20183;-75
2023/01/10 07:03:15;;;;;;;9.43;2.70;;;;;;;;;;5022779;28;20232;-73
2023/01/10 07:05:41;;;;;;;9.77;2.63;;;;;;;;;;5022076;28;20238;-73
2023/01/10 07:08:08;;;;;;;11.75;3.10;;;;;;;;;;5025091;28;20437;-74
2023/01/10 07:10:34;;;;;;;9.17;2.80;;;;;;;;;;5029076;28;20244;-73
2023/01/10 07:13:00;;;;;;;11.30;3.07;;;;;;;;;;5028791;28;20233;-75
2023/01/10 07:15:27;;;;;;;12.10;2.97;;;;;;;;;;5027942;28;20202;-73
2023/01/10 07:17:55;;;;;;;9.50;3.07;;;;;;;;;;5029436;28;20221;-72
2023/01/10 07:20:21;;;;;;;11.10;3.47;;;;;;;;;;5027286;28;20700;-74
2023/01/10 07:22:54;;;;;;;10.97;3.27;;;;;;;;;;5022297;28;20241;-72
2023/01/10 07:25:21;;;;;;;10.37;3.37;;;;;;;;;;5025191;28;20261;-73
2023/01/10 07:27:47;;;;;;;10.13;3.57;;;;;;;;;;5024489;28;20183;-72
2023/01/10 07:30:13;;;;;;;9.50;3.83;;;;;;;;;;5026340;28;20861;-72
2023/01/10 07:32:39;;;;;;;10.70;3.70;;;;;;;;;;5027920;28;20198;-72
2023/01/10 07:35:06;;;;;;;7.37;2.67;;;;;;;;;;5026414;28;20203;-72
2023/01/10 07:37:32;;;;;;;8.23;2.90;;;;;;;;;;5023081;28;20257;-72
2023/01/10 07:39:58;;;;;;;7.70;2.73;;;;;;;;;;5027671;28;20186;-72
2023/01/10 07:42:24;;;;;;;7.57;2.60;;;;;;;;;;5029502;28;20222;-72
2023/01/10 07:44:50;;;;;;;7.07;2.90;;;;;;;;;;5031510;28;20202;-72
2023/01/10 07:47:16;;;;;;;12.57;4.10;;;;;;;;;;5025977;28;20646;-72
2023/01/10 07:49:42;;;;;;;8.87;2.60;;;;;;;;;;5020159;28;20584;-72
2023/01/10 07:52:09;;;;;;;7.37;2.70;;;;;;;;;;5039423;28;20297;-72
2023/01/10 07:54:35;;;;;;;12.17;2.63;;;;;;;;;;5010764;28;20642;-72
2023/01/10 07:57:02;;;;;;;8.57;3.17;;;;;;;;;;5029271;28;20628;-72
2023/01/10 07:59:28;;;;;;;10.13;2.83;;;;;;;;;;5032231;28;20597;-72
2023/01/10 08:01:54;;;;;;;9.63;3.20;;;;;;;;;;5030611;28;20210;-72
2023/01/10 08:04:20;;;;;;;9.33;3.10;;;;;;;;;;5030316;28;20206;-72
2023/01/10 08:06:46;;;;;;;9.37;2.90;;;;;;;;;;5030539;28;20201;-72
2023/01/10 08:09:12;;;;;;;7.27;2.63;;;;;;;;;;5028737;28;20189;-72
2023/01/10 08:11:38;;;;;;;8.33;2.87;;;;;;;;;;5028431;28;20329;-72
2023/01/10 08:14:05;;;;;;;7.90;2.67;;;;;;;;;;5030429;28;20689;-72
2023/01/10 08:16:32;;;;;;;7.73;2.37;;;;;;;;;;5000926;28;20191;-72
2023/01/10 08:18:58;;;;;;;8.70;2.50;;;;;;;;;;5029684;28;20658;-72
2023/01/10 08:21:24;;;;;;;9.63;3.10;;;;;;;;;;5026227;28;20183;-71
2023/01/10 08:23:50;;;;;;;8.03;2.83;;;;;;;;;;5019247;28;20206;-71
2023/01/10 08:26:17;;;;;;;9.13;2.90;;;;;;;;;;5027106;28;20203;-71
2023/01/10 08:28:43;;;;;;;8.07;2.60;;;;;;;;;;5024543;28;20212;-71
2023/01/10 08:31:09;;;;;;;9.70;3.90;;;;;;;;;;5033212;28;20185;-71
2023/01/10 08:33:39;;;;;;;12.70;3.50;;;;;;;;;;5028154;28;20709;-71
2023/01/10 08:36:06;;;;;;;6.87;2.70;;;;;;;;;;5034796;28;20590;-71
2023/01/10 08:38:32;;;;;;;10.33;2.70;;;;;;;;;;5037232;28;20190;-72
2023/01/10 08:40:58;;;;;;;9.30;2.70;;;;;;;;;;5032152;28;20194;-72
2023/01/10 08:43:24;;;;;;;8.17;2.50;;;;;;;;;;5026978;28;20278;-72
2023/01/10 08:45:50;;;;;;;9.33;2.80;;;;;;;;;;5024365;28;20202;-72
2023/01/10 08:48:16;;;;;;;9.23;2.63;;;;;;;;;;5028179;28;20182;-72
2023/01/10 08:50:43;;;;;;;11.43;2.67;;;;;;;;;;5028044;28;20592;-72
2023/01/10 08:53:09;;;;;;;6.87;2.50;;;;;;;;;;5028071;28;20226;-72
2023/01/10 08:55:37;;;;;;;11.43;3.00;;;;;;;;;;5028163;28;20727;-73
2023/01/10 08:58:03;;;;;;;12.07;3.43;;;;;;;;;;5040470;28;20701;-73
2023/01/10 09:00:29;;;;;;;9.87;3.37;;;;;;;;;;5009963;28;20209;-73
2023/01/10 09:02:55;;;;;;;8.53;3.30;;;;;;;;;;5030696;28;20193;-74
2023/01/10 09:05:22;;;;;;;7.90;3.07;;;;;;;;;;5028964;28;20214;-73
2023/01/10 09:07:48;;;;;;;8.77;3.20;;;;;;;;;;5025770;28;20221;-72
2023/01/10 09:10:14;;;;;;;9.47;3.27;;;;;;;;;;5026118;28;20679;-72
2023/01/10 09:12:55;;;;;;;8.87;2.87;;;;;;;;;;5026656;28;20187;-72
2023/01/10 09:15:25;;;;;;;7.03;3.00;;;;;;;;;;5027705;28;20260;-72
2023/01/10 09:18:03;;;;;;;12.37;3.00;;;;;;;;;;5026463;28;20179;-72
2023/01/10 09:20:30;;;;;;;11.70;3.10;;;;;;;;;;5027762;28;20502;-72
2023/01/10 09:22:57;;;;;;;9.17;2.73;;;;;;;;;;5027948;28;20206;-72
2023/01/10 09:25:23;;;;;;;9.83;2.57;;;;;;;;;;5028180;28;20199;-72
2023/01/10 09:27:59;;;;;;;5.60;2.50;;;;;;;;;;5027834;28;20213;-72
2023/01/10 09:30:26;;;;;;;8.03;2.47;;;;;;;;;;5010447;28;20974;-73
2023/01/10 09:32:53;;;;;;;15.50;2.67;;;;;;;;;;5029937;28;20252;-73
2023/01/10 09:35:19;;;;;;;10.20;2.87;;;;;;;;;;5030995;28;20743;-73
2023/01/10 09:37:46;;;;;;;10.83;3.47;;;;;;;;;;5027233;28;20559;-73
2023/01/10 09:40:35;;;;;;;11.57;3.60;;;;;;;;;;5027503;28;20232;-73
2023/01/10 09:43:16;;;;;;;13.70;2.90;;;;;;;;;;5010746;28;20281;-73
2023/01/10 09:46:04;;;;;;;8.90;3.10;;;;;;;;;;5027087;28;20209;-73
2023/01/10 09:48:36;;;;;;;8.70;3.10;;;;;;;;;;5007922;28;20554;-73
2023/01/10 09:51:07;;;;;;;8.60;2.60;;;;;;;;;;5006685;28;20189;-72
2023/01/10 09:53:34;;;;;;;8.80;3.10;;;;;;;;;;5014550;28;20252;-72
2023/01/10 09:56:00;;;;;;;10.97;3.10;;;;;;;;;;5026875;28;20210;-73
2023/01/10 09:58:28;;;;;;;9.87;3.23;;;;;;;;;;5027627;28;20899;-73
2023/01/10 10:00:56;;;;;;;10.10;3.00;;;;;;;;;;5027649;28;20617;-73
2023/01/10 10:03:44;;;;;;;13.67;2.90;;;;;;;;;;5041611;28;20179;-73
2023/01/10 10:06:11;;;;;;;9.33;3.27;;;;;;;;;;5020942;28;20198;-73
2023/01/10 10:08:37;;;;;;;9.87;3.20;;;;;;;;;;5026108;28;20780;-73
2023/01/10 10:11:29;;;;;;;8.90;3.03;;;;;;;;;;5028378;28;20182;-72
2023/01/10 10:14:02;;;;;;;7.60;2.50;;;;;;;;;;5014228;28;20245;-72
2023/01/10 10:16:31;;;;;;;10.07;3.30;;;;;;;;;;5029901;28;20178;-72
2023/01/10 10:19:06;;;;;;;10.87;3.17;;;;;;;;;;5014170;28;20269;-72
2023/01/10 10:21:38;;;;;;;12.60;2.97;;;;;;;;;;5029930;28;20637;-72
2023/01/10 10:24:07;;;;;;;11.10;3.03;;;;;;;;;;5030136;28;20210;-72
2023/01/10 10:26:48;;;;;;;13.40;3.03;;;;;;;;;;5029598;28;20281;-72
2023/01/10 10:29:43;;;;;;;10.80;3.20;;;;;;;;;;5031274;28;20656;-72
2023/01/10 10:32:09;;;;;;;12.43;3.23;;;;;;;;;;5004847;28;20263;-73
2023/01/10 10:34:38;;;;;;;9.43;2.60;;;;;;;;;;5036872;28;20593;-73
2023/01/10 10:37:14;;;;;;;8.87;2.50;;;;;;;;;;5030919;28;20175;-73
2023/01/10 10:39:52;;;;;;;15.93;3.33;;;;;;;;;;5024223;28;20186;-73
2023/01/10 10:42:18;;;;;;;11.57;3.03;;;;;;;;;;5030792;28;20273;-73
2023/01/10 10:44:56;;;;;;;14.07;3.17;;;;;;;;;;5014865;28;20226;-73
2023/01/10 10:47:23;;;;;;;11.87;3.10;;;;;;;;;;5028094;28;20191;-72
2023/01/10 10:49:58;;;;;;;9.53;2.23;;;;;;;;;;5031190;28;20649;-72
2023/01/10 10:52:33;;;;;;;11.80;2.80;;;;;;;;;;5029822;28;20224;-72
2023/01/10 10:55:00;;;;;;;9.07;2.87;;;;;;;;;;5029659;28;20289;-73
2023/01/10 10:57:28;;;;;;;12.23;4.17;;;;;;;;;;5030653;28;20185;-73
2023/01/10 10:59:55;;;;;;;9.47;3.13;;;;;;;;;;5029295;28;20737;-73
2023/01/10 11:02:26;;;;;;;14.10;3.00;;;;;;;;;;5030674;28;20193;-73
2023/01/10 11:04:54;;;;;;;9.57;2.63;;;;;;;;;;5031708;28;20845;-73
2023/01/10 11:07:21;;;;;;;11.23;2.63;;;;;;;;;;5030452;28;20193;-73
2023/01/10 11:10:01;;;;;;;9.53;2.60;;;;;;;;;;5040063;28;20184;-73
2023/01/10 11:12:31;;;;;;;10.50;2.90;;;;;;;;;;5045130;28;20700;-73
2023/01/10 11:14:58;;;;;;;7.93;2.67;;;;;;;;;;5029565;28;20210;-73
2023/01/10 11:17:28;;;;;;;13.47;2.90;;;;;;;;;;5028923;28;20552;-73
2023/01/10 11:20:05;;;;;;;12.87;3.40;;;;;;;;;;5030305;28;20194;-73
2023/01/10 11:22:37;;;;;;;10.40;3.00;;;;;;;;;;5009957;28;22001;-74
2023/01/10 11:25:03;;;;;;;13.43;3.47;;;;;;;;;;5030272;28;20252;-74
2023/01/10 11:27:31;;;;;;;11.73;3.10;;;;;;;;;;5007072;28;20214;-74
2023/01/10 11:30:00;;;;;;;8.50;2.63;;;;;;;;;;5022823;28;20839;-75
2023/01/10 11:32:30;;;;;;;10.60;2.90;;;;;;;;;;5030610;28;20537;-74
2023/01/10 11:34:58;;;;;;;13.53;2.87;;;;;;;;;;5030045;28;20201;-72
2023/01/10 11:37:31;;;;;;;12.37;3.23;;;;;;;;;;5028783;28;20183;-72
2023/01/10 11:40:15;;;;;;;9.03;3.07;;;;;;;;;;5028290;28;20221;-72
2023/01/10 11:42:42;;;;;;;11.17;2.80;;;;;;;;;;5025899;28;20189;-72
2023/01/10 11:45:17;;;;;;;12.77;3.13;;;;;;;;;;5029449;28;20214;-72
2023/01/10 11:47:48;;;;;;;10.00;2.80;;;;;;;;;;5029292;28;20185;-72
2023/01/10 11:50:19;;;;;;;12.57;2.93;;;;;;;;;;5028609;28;20286;-73
2023/01/10 11:52:46;;;;;;;11.70;3.50;;;;;;;;;;5025876;28;20187;-72
2023/01/10 11:55:18;;;;;;;16.97;3.80;;;;;;;;;;5025618;28;20297;-72
2023/01/10 11:57:45;;;;;;;11.23;3.53;;;;;;;;;;5022197;28;20262;-72
2023/01/10 12:00:11;;;;;;;11.10;3.53;;;;;;;;;;5027373;28;20240;-72
2023/01/10 12:02:41;;;;;;;13.03;3.67;;;;;;;;;;5028461;28;20860;-72
2023/01/10 12:05:10;;;;;;;13.97;3.70;;;;;;;;;;5034997;28;20198;-73
2023/01/10 12:07:55;;;;;;;10.47;3.50;;;;;;;;;;5027777;28;20205;-72
2023/01/10 12:10:22;;;;;;;17.43;3.63;;;;;;;;;;5028253;28;20187;-73
2023/01/10 12:12:56;;;;;;;12.20;3.50;;;;;;;;;;5028921;28;20272;-72
2023/01/10 12:15:24;;;;;;;15.00;3.60;;;;;;;;;;5027643;28;20285;-72
2023/01/10 12:17:50;;;;;;;14.73;3.63;;;;;;;;;;5027551;28;20270;-72
2023/01/10 12:20:17;;;;;;;16.47;3.97;;;;;;;;;;5032102;28;20737;-73
2023/01/10 12:22:49;;;;;;;14.67;3.93;;;;;;;;;;5029183;28;20243;-74
2023/01/10 12:25:20;;;;;;;13.47;3.90;;;;;;;;;;5026790;28;20206;-73
2023/01/10 12:27:49;;;;;;;12.93;3.80;;;;;;;;;;5027769;28;20229;-74
2023/01/10 12:30:23;;;;;;;13.17;4.07;;;;;;;;;;5027133;28;20248;-74
2023/01/10 12:32:51;;;;;;;12.10;3.37;;;;;;;;;;5028721;28;20175;-74
2023/01/10 12:35:19;;;;;;;8.00;2.57;;;;;;;;;;5028458;28;20190;-74
2023/01/10 12:37:50;;;;;;;13.33;3.27;;;;;;;;;;5027820;28;20210;-73
2023/01/10 12:40:28;;;;;;;13.03;3.47;;;;;;;;;;5013131;28;20193;-73
2023/01/10 12:45:52;;;;;;;15.60;3.60;;;;;;;;;;5026489;28;20228;-73
2023/01/10 12:48:18;;;;;;;14.43;3.20;;;;;;;;;;5031734;28;20185;-73
2023/01/10 12:50:50;;;;;;;12.83;3.13;;;;;;;;;;5025798;28;20504;-73
2023/01/10 12:53:22;;;;;;;13.60;3.37;;;;;;;;;;5031483;28;20241;-73
2023/01/10 12:55:48;;;;;;;11.77;3.27;;;;;;;;;;5030858;28;20202;-73
2023/01/10 12:58:17;;;;;;;9.27;2.97;;;;;;;;;;5031321;28;20182;-73
2023/01/10 13:00:46;;;;;;;14.73;3.30;;;;;;;;;;5028037;28;20552;-74
2023/01/10 13:03:14;;;;;;;11.27;3.27;;;;;;;;;;5027127;28;20226;-73
2023/01/10 13:05:41;;;;;;;15.30;3.27;;;;;;;;;;5026085;28;20861;-73
2023/01/10 13:08:11;;;;;;;14.63;3.70;;;;;;;;;;5028067;28;20615;-73
2023/01/10 13:10:40;;;;;;;15.40;3.47;;;;;;;;;;5026784;28;20620;-73
2023/01/10 13:13:29;;;;;;;12.83;3.43;;;;;;;;;;5027881;28;20206;-73
2023/01/10 13:16:00;;;;;;;12.40;3.47;;;;;;;;;;5022018;28;20209;-73
2023/01/10 13:18:30;;;;;;;12.20;3.00;;;;;;;;;;5027836;28;20187;-73
2023/01/10 13:21:12;;;;;;;16.57;3.50;;;;;;;;;;5026381;28;20179;-73
2023/01/10 13:23:59;;;;;;;11.97;3.17;;;;;;;;;;5027997;28;20196;-73
2023/01/10 13:26:26;;;;;;;12.50;3.50;;;;;;;;;;5023367;28;20202;-73
2023/01/10 13:29:02;;;;;;;16.23;3.70;;;;;;;;;;5027647;28;20206;-73
2023/01/10 13:31:32;;;;;;;11.87;3.27;;;;;;;;;;5026186;28;20178;-73
2023/01/10 13:33:59;;;;;;;12.37;3.30;;;;;;;;;;5026137;28;20202;-73
2023/01/10 13:36:27;;;;;;;11.87;3.30;;;;;;;;;;5019858;28;20198;-73
2023/01/10 13:38:59;;;;;;;10.17;3.77;;;;;;;;;;5027454;28;20175;-73
2023/01/10 13:44:50;;;;;;;12.00;3.20;;;;;;;;;;5017353;28;20624;-73
2023/01/10 13:47:36;;;;;;;11.60;3.40;;;;;;;;;;5024350;28;20197;-73
2023/01/10 13:50:32;;;;;;;11.07;3.07;;;;;;;;;;5019868;28;20282;-73
2023/01/10 13:53:03;;;;;;;15.00;3.10;;;;;;;;;;5025225;28;20210;-74
2023/01/10 13:55:33;;;;;;;12.03;3.17;;;;;;;;;;5009367;28;20384;-73
2023/01/10 13:58:00;;;;;;;9.17;2.70;;;;;;;;;;5026585;28;20189;-74
2023/01/10 14:03:35;;;;;;;12.13;3.00;;;;;;;;;;5026949;28;20761;-73
2023/01/10 14:06:02;;;;;;;11.80;2.70;;;;;;;;;;5013301;28;20230;-73
2023/01/10 14:08:32;;;;;;;14.27;3.07;;;;;;;;;;5025058;28;20182;-75
2023/01/10 14:11:06;;;;;;;9.03;2.73;;;;;;;;;;5022602;28;20182;-73
2023/01/10 14:13:32;;;;;;;10.00;2.60;;;;;;;;;;5025889;28;20722;-74
2023/01/10 14:15:58;;;;;;;13.40;3.00;;;;;;;;;;5025088;28;20217;-73
2023/01/10 14:18:33;;;;;;;7.97;2.30;;;;;;;;;;5025909;28;20618;-73
2023/01/10 14:21:01;;;;;;;8.40;2.40;;;;;;;;;;5024068;28;20190;-73
2023/01/10 14:23:30;;;;;;;9.83;2.50;;;;;;;;;;5031623;28;20179;-73
2023/01/10 14:25:56;;;;;;;9.20;2.30;;;;;;;;;;5027086;28;20573;-73
2023/01/10 14:28:22;;;;;;;14.23;3.00;;;;;;;;;;5027607;28;20178;-73
2023/01/10 14:30:58;;;;;;;13.33;3.30;;;;;;;;;;5023127;28;20183;-73
2023/01/10 14:33:24;;;;;;;10.47;2.93;;;;;;;;;;5027828;28;20206;-73
2023/01/10 14:35:52;;;;;;;8.60;2.83;;;;;;;;;;5027093;28;20203;-73
2023/01/10 14:38:22;;;;;;;11.03;2.97;;;;;;;;;;5029752;28;20179;-74
2023/01/10 14:40:50;;;;;;;11.17;3.30;;;;;;;;;;5026979;28;20210;-73
2023/01/10 14:43:18;;;;;;;10.57;2.70;;;;;;;;;;5027284;28;20194;-74
2023/01/10 14:45:51;;;;;;;9.80;2.80;;;;;;;;;;5028685;28;20720;-74
2023/01/10 14:48:22;;;;;;;14.23;2.70;;;;;;;;;;5028297;28;20178;-73
2023/01/10 14:50:48;;;;;;;11.33;2.53;;;;;;;;;;5026268;28;20236;-73
2023/01/10 14:53:28;;;;;;;12.13;2.97;;;;;;;;;;5026934;28;20252;-73
2023/01/10 14:55:54;;;;;;;6.87;2.93;;;;;;;;;;5028197;28;20217;-73
2023/01/10 14:58:21;;;;;;;13.50;2.73;;;;;;;;;;5026836;28;20186;-73
2023/01/10 15:00:49;;;;;;;11.43;3.70;;;;;;;;;;5031788;28;20194;-74
2023/01/10 15:03:20;;;;;;;12.63;3.30;;;;;;;;;;5032513;28;20191;-74
2023/01/10 15:05:48;;;;;;;13.33;3.63;;;;;;;;;;5032554;28;20202;-73